Alne, United Kingdom
Current Conditions -  °F | °C
As of 9:50 PM on Tuesday 21 Oct 2014 (Local Time) from EGXU Reporting Station
Clear Clear  
Wind Chill: 39°   Ceiling: Unl
Heat Index: 46°   Visibility: NA
Dew Point: 32°   Wind: 22mph
Humidity: 57%   Direction: 300°WNW
Pressure: 29.94"   Gusts: NA
Location:  54.08°N, 1.1°W
Report Text: EGXU 212050Z AUTO 30019KT //// // NCD 08/M00 Q1014
Loading
Personal Weather Stations






























Interactive Weather Map New forecast layout! Learn more

10-Day Weather Forecast

Advertisements
Track Severe Weather on mobile